createdAt,value
2022-10-22T00:10:19.471Z,97998.97
2022-10-22T00:15:23.810Z,98002.34
2022-10-22T00:20:26.521Z,97981.25
2022-10-22T00:25:29.330Z,97981.25
2022-10-22T00:30:33.499Z,97983.25
2022-10-22T00:35:36.229Z,97963.84
2022-10-22T00:40:38.921Z,97957.94
2022-10-22T00:45:43.390Z,97947.44
2022-10-22T00:50:49.194Z,97963.63
2022-10-22T00:55:54.683Z,97964.47
2022-10-22T01:00:59.277Z,97958.81
2022-10-22T01:06:06.044Z,97954.31
2022-10-22T01:11:16.589Z,97972.72
2022-10-22T01:16:27.528Z,97963.53
2022-10-22T01:21:35.470Z,97961.34
2022-10-22T01:26:51.058Z,97970.34
2022-10-22T01:32:00.254Z,97971.88
2022-10-22T01:37:04.555Z,97967.19
2022-10-22T01:42:07.719Z,97976.38
2022-10-22T01:47:22.696Z,97977.78
2022-10-22T01:52:35.549Z,97969.59
2022-10-22T01:57:45.265Z,97969.13
2022-10-22T02:03:01.371Z,97948.09
2022-10-22T02:08:09.218Z,97959.47
2022-10-22T02:13:17.175Z,97949.28
2022-10-22T02:18:25.150Z,97963.22
2022-10-22T02:23:28.675Z,97973.44
2022-10-22T02:28:38.266Z,97992.22
2022-10-22T02:33:46.431Z,98000.78
2022-10-22T02:38:52.399Z,97998.78
2022-10-22T02:43:56.611Z,97998.47
2022-10-22T02:49:00.682Z,97993.47
2022-10-22T02:54:03.443Z,97986.13
2022-10-22T02:59:06.603Z,97990.34
2022-10-22T03:04:11.618Z,97989.16
2022-10-22T03:09:14.539Z,97995.91
2022-10-22T03:14:17.757Z,98001.25
2022-10-22T03:19:21.979Z,98001.94
2022-10-22T03:24:30.037Z,98007.97
2022-10-22T03:29:36.231Z,98014.13
2022-10-22T03:34:40.396Z,98007.28
2022-10-22T03:39:43.287Z,98011.97
2022-10-22T03:44:46.032Z,98006.22
2022-10-22T03:49:50.174Z,98006.41
2022-10-22T03:54:53.663Z,98008.22
2022-10-22T03:59:56.664Z,98022.47
2022-10-22T04:05:00.998Z,98032.19
2022-10-22T04:10:04.301Z,98049.06
2022-10-22T04:15:08.253Z,98056.09
2022-10-22T04:20:12.803Z,98054.13
2022-10-22T04:25:15.528Z,98054.13
2022-10-22T04:30:18.295Z,98064.13
2022-10-22T04:35:22.485Z,98081.19
2022-10-22T04:40:25.320Z,98080.53
2022-10-22T04:45:28.051Z,98084.38
2022-10-22T04:50:32.711Z,98080.84
2022-10-22T04:55:35.465Z,98088.06
2022-10-22T05:00:38.249Z,98098.59
2022-10-22T05:05:42.341Z,98107.47
2022-10-22T05:10:45.207Z,98099.44
2022-10-22T05:15:48.290Z,98109.16
2022-10-22T05:20:52.491Z,98108.16
2022-10-22T05:25:55.182Z,98112.34
2022-10-22T05:30:59.566Z,98111.34
2022-10-22T05:36:05.510Z,98110.66
2022-10-22T05:41:11.133Z,98115.16
2022-10-22T05:46:21.278Z,98110.41
2022-10-22T05:51:27.713Z,98113.38
2022-10-22T05:56:32.534Z,98118.72
2022-10-22T06:01:36.292Z,98123.94
2022-10-22T06:06:43.792Z,98129.00
2022-10-22T06:11:47.709Z,98125.84
2022-10-22T06:16:51.269Z,98119.19
2022-10-22T06:21:55.337Z,98134.06
2022-10-22T06:26:58.377Z,98141.78
2022-10-22T06:32:01.087Z,98148.53
2022-10-22T06:37:05.227Z,98176.38
2022-10-22T06:42:08.217Z,98185.16
2022-10-22T06:47:11.018Z,98190.09
2022-10-22T06:52:15.751Z,98211.00
2022-10-22T06:57:18.537Z,98206.47
2022-10-22T07:02:21.527Z,98217.75
2022-10-22T07:07:25.795Z,98224.97
2022-10-22T07:12:29.438Z,98227.06
2022-10-22T07:17:32.158Z,98233.78
2022-10-22T07:22:36.845Z,98243.19
2022-10-22T07:27:39.841Z,98249.13
2022-10-22T07:32:42.793Z,98262.53
2022-10-22T07:37:46.995Z,98262.81
2022-10-22T07:42:49.749Z,98270.59
2022-10-22T07:47:53.869Z,98273.50
2022-10-22T07:52:58.474Z,98271.91
2022-10-22T07:58:01.523Z,98286.44
2022-10-22T08:03:04.461Z,98286.63
2022-10-22T08:08:08.607Z,98292.31
2022-10-22T08:13:12.317Z,98297.06
2022-10-22T08:18:15.428Z,98298.69
2022-10-22T08:23:22.079Z,98312.13
2022-10-22T08:28:29.934Z,98323.59
2022-10-22T08:33:32.893Z,98334.03
2022-10-22T08:38:37.050Z,98335.03
2022-10-22T08:44:15.317Z,98350.31
2022-10-22T08:49:21.875Z,98345.94
2022-10-22T08:54:34.516Z,98348.06
2022-10-22T08:59:45.549Z,98359.69
2022-10-22T09:04:55.775Z,98367.94
2022-10-22T09:10:01.540Z,98367.56
2022-10-22T09:15:05.065Z,98374.38
2022-10-22T09:20:15.857Z,98370.97
2022-10-22T09:25:23.881Z,98369.38
2022-10-22T09:30:28.520Z,98377.19
2022-10-22T09:35:35.646Z,98380.38
2022-10-22T09:40:47.549Z,98379.59
2022-10-22T09:45:57.955Z,98379.94
2022-10-22T09:51:07.215Z,98384.19
2022-10-22T09:56:19.955Z,98394.88
2022-10-22T10:01:25.935Z,98391.47
2022-10-22T10:06:34.328Z,98396.50
2022-10-22T10:11:44.467Z,98390.91
2022-10-22T10:16:59.001Z,98392.59
2022-10-22T10:22:12.046Z,98376.41
2022-10-22T10:27:23.981Z,98389.56
2022-10-22T10:32:41.912Z,98394.63
2022-10-22T10:37:51.198Z,98393.59
2022-10-22T10:43:01.245Z,98398.06
2022-10-22T10:48:34.141Z,98402.09
2022-10-22T10:53:53.340Z,98403.88
2022-10-22T10:59:08.372Z,98415.69
2022-10-22T11:04:27.722Z,98398.00
2022-10-22T11:09:37.558Z,98406.97
2022-10-22T11:14:52.026Z,98409.47
2022-10-22T11:20:01.848Z,98408.47
2022-10-22T11:25:15.199Z,98413.66
2022-10-22T11:30:21.680Z,98414.03
2022-10-22T11:35:28.073Z,98410.47
2022-10-22T11:40:35.944Z,98405.59
2022-10-22T11:45:43.055Z,98412.06
2022-10-22T11:50:50.799Z,98410.69
2022-10-22T11:55:58.062Z,98400.63
2022-10-22T12:06:29.755Z,98395.59
2022-10-22T12:11:39.429Z,98395.22
2022-10-22T12:17:01.719Z,98392.41
2022-10-22T12:22:17.957Z,98395.81
2022-10-22T12:27:23.187Z,98395.97
2022-10-22T12:32:35.163Z,98397.41
2022-10-22T12:37:40.108Z,98397.13
2022-10-22T12:42:48.990Z,98391.06
2022-10-22T12:47:56.580Z,98392.09
2022-10-22T12:53:01.169Z,98394.50
2022-10-22T12:58:07.236Z,98392.84
2022-10-22T13:03:26.552Z,98387.50
2022-10-22T13:08:35.552Z,98387.75
2022-10-22T13:13:45.635Z,98388.06
2022-10-22T13:18:50.583Z,98384.06
2022-10-22T13:23:57.797Z,98391.81
2022-10-22T13:29:02.183Z,98391.34
2022-10-22T13:34:11.710Z,98382.75
2022-10-22T13:39:19.857Z,98389.19
2022-10-22T13:44:22.595Z,98388.16
2022-10-22T13:49:25.337Z,98390.56
2022-10-22T13:54:30.217Z,98389.25
2022-10-22T13:59:32.920Z,98382.03
2022-10-22T14:04:40.621Z,98388.13
2022-10-22T14:09:45.087Z,98379.59
2022-10-22T14:14:47.850Z,98380.38
2022-10-22T14:19:50.725Z,98391.59
2022-10-22T14:24:55.255Z,98392.38
2022-10-22T14:29:59.596Z,98392.09
2022-10-22T14:35:02.666Z,98385.00
2022-10-22T14:40:11.987Z,98382.25
2022-10-22T14:45:18.461Z,98394.47
2022-10-22T14:50:21.309Z,98404.28
2022-10-22T14:55:27.128Z,98410.25
2022-10-22T15:00:29.899Z,98400.75
2022-10-22T15:05:32.631Z,98406.16
2022-10-22T15:10:36.768Z,98408.63
2022-10-22T15:15:41.260Z,98405.81
2022-10-22T15:20:44.058Z,98409.88
2022-10-22T15:25:48.119Z,98405.97
2022-10-22T15:30:59.340Z,98403.22
2022-10-22T15:36:10.934Z,98407.06
2022-10-22T15:41:15.104Z,98412.72
2022-10-22T15:46:19.453Z,98418.19
2022-10-22T15:51:22.429Z,98409.13
2022-10-22T15:56:28.221Z,98415.22
2022-10-22T16:01:31.876Z,98408.16
2022-10-22T16:06:36.520Z,98417.94
2022-10-22T16:11:41.507Z,98418.94
2022-10-22T16:16:46.481Z,98416.06
2022-10-22T16:21:51.466Z,98406.97
2022-10-22T16:26:55.784Z,98412.44
2022-10-22T16:31:58.513Z,98416.88
2022-10-22T16:37:01.246Z,98415.59
2022-10-22T16:42:05.442Z,98420.69
2022-10-22T16:47:08.147Z,98429.94
2022-10-22T16:52:11.095Z,98435.00
2022-10-22T16:57:15.195Z,98445.25
2022-10-22T17:02:17.890Z,98446.97
2022-10-22T17:07:23.659Z,98461.06
2022-10-22T17:12:27.798Z,98467.25
2022-10-22T17:17:30.525Z,98472.69
2022-10-22T17:22:33.775Z,98477.56
2022-10-22T17:27:38.992Z,98476.09
2022-10-22T17:32:41.920Z,98477.28
2022-10-22T17:37:44.869Z,98477.31
2022-10-22T17:42:49.430Z,98486.53
2022-10-22T17:47:52.981Z,98492.38
2022-10-22T17:52:55.689Z,98489.97
2022-10-22T17:57:59.822Z,98496.03
2022-10-22T18:03:02.539Z,98503.66
2022-10-22T18:08:07.780Z,98497.91
2022-10-22T18:13:13.963Z,98498.66
2022-10-22T18:23:45.048Z,98491.75
2022-10-22T18:28:49.893Z,98494.28
2022-10-22T18:38:58.390Z,98493.75
2022-10-22T18:44:04.911Z,98496.00
2022-10-22T18:49:08.029Z,98500.78
2022-10-22T18:54:22.542Z,98499.59
2022-10-22T18:59:28.358Z,98498.91
2022-10-22T19:04:36.544Z,98494.97
2022-10-22T19:09:40.529Z,98497.06
2022-10-22T19:15:11.218Z,98486.31
2022-10-22T19:20:14.271Z,98485.19
2022-10-22T19:25:17.135Z,98480.81
2022-10-22T19:30:24.061Z,98481.06
2022-10-22T19:35:27.160Z,98483.59
2022-10-22T19:40:55.281Z,98489.59
2022-10-22T19:45:59.475Z,98487.59
2022-10-22T19:51:04.279Z,98487.31
2022-10-22T19:56:09.658Z,98486.88
2022-10-22T20:01:16.054Z,98477.28
2022-10-22T20:11:46.505Z,98491.56
2022-10-22T20:16:50.686Z,98488.19
2022-10-22T20:21:53.491Z,98507.28
2022-10-22T20:26:56.337Z,98509.47
2022-10-22T20:32:02.316Z,98515.06
2022-10-22T20:37:07.043Z,98514.50
2022-10-22T20:42:09.967Z,98512.81
2022-10-22T20:52:41.443Z,98513.63
2022-10-22T20:57:44.489Z,98504.09
2022-10-22T21:02:48.823Z,98496.38
2022-10-22T21:07:51.531Z,98500.72
2022-10-22T21:12:54.336Z,98496.22
2022-10-22T21:17:58.465Z,98503.50
2022-10-22T21:23:01.212Z,98492.84
2022-10-22T21:28:04.027Z,98500.13
2022-10-22T21:33:08.162Z,98505.84
2022-10-22T21:38:11.010Z,98504.16
2022-10-22T21:43:13.849Z,98508.31
2022-10-22T21:48:18.042Z,98513.91
2022-10-22T21:53:20.737Z,98511.78
2022-10-22T21:58:24.018Z,98515.66
2022-10-22T22:03:29.104Z,98513.00
2022-10-22T22:08:33.579Z,98518.72
2022-10-22T22:13:36.582Z,98504.81
2022-10-22T22:18:42.043Z,98508.94
2022-10-22T22:23:46.531Z,98496.41
2022-10-22T22:28:49.395Z,98495.91
2022-10-22T22:34:00.167Z,98489.00
2022-10-22T22:39:04.654Z,98483.22
2022-10-22T22:44:07.418Z,98483.84
2022-10-22T22:49:11.590Z,98475.56
2022-10-22T22:54:14.546Z,98466.50
2022-10-22T22:59:17.263Z,98457.44
2022-10-22T23:04:23.775Z,98458.81
2022-10-22T23:09:26.711Z,98451.31
2022-10-22T23:14:29.523Z,98445.41
2022-10-22T23:19:33.621Z,98454.38
2022-10-22T23:24:36.912Z,98454.88
2022-10-22T23:29:44.391Z,98457.03
2022-10-22T23:34:49.109Z,98456.09
2022-10-22T23:39:51.812Z,98457.56
2022-10-22T23:44:54.847Z,98450.81
2022-10-22T23:49:58.943Z,98457.09
2022-10-22T23:55:01.663Z,98450.59
